sensor_id;sensor_type;location;lat;lon;timestamp;pressure;altitude;pressure_sealevel;temperature;humidity
60099;BME280;45976;49.400;8.682;2022-08-05T00:00:29;99880.69;;;29.02;41.03
60099;BME280;45976;49.400;8.682;2022-08-05T00:01:31;99894.19;;;28.85;42.06
60099;BME280;45976;49.400;8.682;2022-08-05T00:02:32;99892.91;;;28.69;42.41
60099;BME280;45976;49.400;8.682;2022-08-05T00:03:33;99896.69;;;28.82;42.36
60099;BME280;45976;49.400;8.682;2022-08-05T00:04:33;99904.44;;;28.66;42.96
60099;BME280;45976;49.400;8.682;2022-08-05T00:05:34;99909.44;;;28.86;42.64
60099;BME280;45976;49.400;8.682;2022-08-05T00:06:35;99912.81;;;28.70;43.20
60099;BME280;45976;49.400;8.682;2022-08-05T00:07:35;99918.59;;;28.68;43.25
60099;BME280;45976;49.400;8.682;2022-08-05T00:08:37;99912.78;;;28.83;43.05
60099;BME280;45976;49.400;8.682;2022-08-05T00:09:38;99914.41;;;28.57;43.95
60099;BME280;45976;49.400;8.682;2022-08-05T00:10:39;99915.13;;;28.49;44.23
60099;BME280;45976;49.400;8.682;2022-08-05T00:11:39;99908.38;;;28.60;43.98
60099;BME280;45976;49.400;8.682;2022-08-05T00:12:40;99932.50;;;28.53;44.40
60099;BME280;45976;49.400;8.682;2022-08-05T00:13:42;99922.38;;;28.40;44.95
60099;BME280;45976;49.400;8.682;2022-08-05T00:14:43;99919.38;;;28.28;45.33
60099;BME280;45976;49.400;8.682;2022-08-05T00:15:44;99927.06;;;28.26;45.50
60099;BME280;45976;49.400;8.682;2022-08-05T00:16:44;99930.59;;;28.26;45.91
60099;BME280;45976;49.400;8.682;2022-08-05T00:17:45;99928.56;;;28.32;45.40
60099;BME280;45976;49.400;8.682;2022-08-05T00:18:47;99933.81;;;28.15;45.93
60099;BME280;45976;49.400;8.682;2022-08-05T00:19:48;99932.91;;;28.19;46.02
60099;BME280;45976;49.400;8.682;2022-08-05T00:20:49;99931.78;;;28.07;46.41
60099;BME280;45976;49.400;8.682;2022-08-05T00:21:51;99925.53;;;28.06;46.61
60099;BME280;45976;49.400;8.682;2022-08-05T00:22:51;99924.94;;;28.23;46.03
60099;BME280;45976;49.400;8.682;2022-08-05T00:23:52;99928.03;;;28.03;46.57
60099;BME280;45976;49.400;8.682;2022-08-05T00:24:53;99930.47;;;28.18;46.40
60099;BME280;45976;49.400;8.682;2022-08-05T00:25:53;99925.81;;;28.05;46.81
60099;BME280;45976;49.400;8.682;2022-08-05T00:26:54;99922.81;;;28.06;46.84
60099;BME280;45976;49.400;8.682;2022-08-05T00:27:54;99934.38;;;27.98;46.96
60099;BME280;45976;49.400;8.682;2022-08-05T00:28:55;99920.22;;;27.96;47.02
60099;BME280;45976;49.400;8.682;2022-08-05T00:29:56;99921.81;;;27.83;47.77
60099;BME280;45976;49.400;8.682;2022-08-05T00:30:56;99922.75;;;27.92;47.42
60099;BME280;45976;49.400;8.682;2022-08-05T00:31:57;99917.47;;;27.69;48.28
60099;BME280;45976;49.400;8.682;2022-08-05T00:32:57;99928.75;;;27.62;48.62
60099;BME280;45976;49.400;8.682;2022-08-05T00:33:58;99926.09;;;27.57;48.88
60099;BME280;45976;49.400;8.682;2022-08-05T00:34:59;99929.72;;;27.53;49.33
60099;BME280;45976;49.400;8.682;2022-08-05T00:36:00;99928.31;;;27.55;49.51
60099;BME280;45976;49.400;8.682;2022-08-05T00:37:01;99925.78;;;27.59;49.22
60099;BME280;45976;49.400;8.682;2022-08-05T00:38:02;99935.38;;;27.56;49.68
60099;BME280;45976;49.400;8.682;2022-08-05T00:39:02;99933.16;;;27.58;49.71
60099;BME280;45976;49.400;8.682;2022-08-05T00:40:04;99928.50;;;27.59;49.79
60099;BME280;45976;49.400;8.682;2022-08-05T00:41:04;99927.50;;;27.55;50.03
60099;BME280;45976;49.400;8.682;2022-08-05T00:42:06;99937.00;;;27.57;50.07
60099;BME280;45976;49.400;8.682;2022-08-05T00:43:07;99935.59;;;27.60;50.08
60099;BME280;45976;49.400;8.682;2022-08-05T00:44:08;99929.59;;;27.44;50.96
60099;BME280;45976;49.400;8.682;2022-08-05T00:45:09;99932.53;;;27.29;51.85
60099;BME280;45976;49.400;8.682;2022-08-05T00:46:09;99934.06;;;27.35;51.82
60099;BME280;45976;49.400;8.682;2022-08-05T00:47:10;99926.34;;;27.24;52.46
60099;BME280;45976;49.400;8.682;2022-08-05T00:48:21;99926.44;;;27.37;52.11
60099;BME280;45976;49.400;8.682;2022-08-05T00:49:22;99925.53;;;27.23;52.78
60099;BME280;45976;49.400;8.682;2022-08-05T00:50:23;99922.72;;;27.28;52.72
60099;BME280;45976;49.400;8.682;2022-08-05T00:51:24;99925.53;;;27.23;52.81
60099;BME280;45976;49.400;8.682;2022-08-05T00:52:25;99925.19;;;27.11;53.16
60099;BME280;45976;49.400;8.682;2022-08-05T00:53:25;99928.16;;;27.28;52.68
60099;BME280;45976;49.400;8.682;2022-08-05T00:54:26;99928.63;;;26.98;53.82
60099;BME280;45976;49.400;8.682;2022-08-05T00:55:27;99933.50;;;27.01;53.75
60099;BME280;45976;49.400;8.682;2022-08-05T00:56:27;99936.06;;;27.11;53.42
60099;BME280;45976;49.400;8.682;2022-08-05T00:57:28;99926.22;;;26.96;53.91
60099;BME280;45976;49.400;8.682;2022-08-05T00:58:29;99926.72;;;26.98;54.08
60099;BME280;45976;49.400;8.682;2022-08-05T00:59:29;99934.38;;;26.96;54.33
60099;BME280;45976;49.400;8.682;2022-08-05T01:00:30;99918.34;;;26.95;54.33
60099;BME280;45976;49.400;8.682;2022-08-05T01:01:31;99924.94;;;26.89;54.65
60099;BME280;45976;49.400;8.682;2022-08-05T01:02:31;99917.97;;;26.83;54.74
60099;BME280;45976;49.400;8.682;2022-08-05T01:03:32;99927.38;;;26.90;54.66
60099;BME280;45976;49.400;8.682;2022-08-05T01:04:33;99914.81;;;26.76;55.04
60099;BME280;45976;49.400;8.682;2022-08-05T01:05:34;99918.50;;;26.85;54.77
60099;BME280;45976;49.400;8.682;2022-08-05T01:06:34;99909.81;;;26.83;55.08
60099;BME280;45976;49.400;8.682;2022-08-05T01:07:35;99909.91;;;26.73;55.29
60099;BME280;45976;49.400;8.682;2022-08-05T01:08:35;99911.66;;;26.64;55.70
60099;BME280;45976;49.400;8.682;2022-08-05T01:09:36;99905.75;;;26.80;55.45
60099;BME280;45976;49.400;8.682;2022-08-05T01:10:41;99899.75;;;26.83;55.36
60099;BME280;45976;49.400;8.682;2022-08-05T01:11:48;99899.63;;;26.70;56.00
60099;BME280;45976;49.400;8.682;2022-08-05T01:12:57;99894.78;;;26.67;56.10
60099;BME280;45976;49.400;8.682;2022-08-05T01:14:35;99888.00;;;26.64;56.22
60099;BME280;45976;49.400;8.682;2022-08-05T01:15:42;99878.44;;;26.67;55.76
60099;BME280;45976;49.400;8.682;2022-08-05T01:16:53;99887.25;;;26.82;55.25
60099;BME280;45976;49.400;8.682;2022-08-05T01:18:11;99875.09;;;26.75;55.79
60099;BME280;45976;49.400;8.682;2022-08-05T01:20:33;99868.50;;;26.81;55.49
60099;BME280;45976;49.400;8.682;2022-08-05T01:28:01;99862.91;;;26.91;54.57
60099;BME280;45976;49.400;8.682;2022-08-05T01:29:14;99848.66;;;26.80;54.68
60099;BME280;45976;49.400;8.682;2022-08-05T01:30:18;99840.56;;;26.94;53.41
60099;BME280;45976;49.400;8.682;2022-08-05T01:31:30;99829.19;;;27.05;53.05
60099;BME280;45976;49.400;8.682;2022-08-05T01:32:37;99832.41;;;27.26;52.20
60099;BME280;45976;49.400;8.682;2022-08-05T01:34:14;99818.09;;;27.21;51.91
60099;BME280;45976;49.400;8.682;2022-08-05T01:35:25;99823.28;;;27.36;51.65
60099;BME280;45976;49.400;8.682;2022-08-05T01:36:34;99819.72;;;27.35;51.73
60099;BME280;45976;49.400;8.682;2022-08-05T01:37:52;99823.72;;;27.24;51.32
60099;BME280;45976;49.400;8.682;2022-08-05T01:38:55;99824.16;;;27.31;51.23
60099;BME280;45976;49.400;8.682;2022-08-05T01:39:57;99830.69;;;27.30;51.40
60099;BME280;45976;49.400;8.682;2022-08-05T01:41:01;99831.19;;;27.32;51.31
60099;BME280;45976;49.400;8.682;2022-08-05T01:42:05;99831.59;;;27.44;50.98
60099;BME280;45976;49.400;8.682;2022-08-05T01:43:13;99822.41;;;27.40;51.21
60099;BME280;45976;49.400;8.682;2022-08-05T01:44:15;99822.41;;;27.40;51.15
60099;BME280;45976;49.400;8.682;2022-08-05T01:45:18;99833.34;;;27.35;51.40
60099;BME280;45976;49.400;8.682;2022-08-05T01:46:22;99829.59;;;27.31;51.49
60099;BME280;45976;49.400;8.682;2022-08-05T01:47:25;99831.81;;;27.29;51.68
60099;BME280;45976;49.400;8.682;2022-08-05T01:48:30;99825.94;;;27.22;51.96
60099;BME280;45976;49.400;8.682;2022-08-05T01:49:35;99824.44;;;27.30;51.86
60099;BME280;45976;49.400;8.682;2022-08-05T01:50:39;99825.75;;;27.32;51.71
60099;BME280;45976;49.400;8.682;2022-08-05T01:51:42;99823.00;;;27.37;51.64
60099;BME280;45976;49.400;8.682;2022-08-05T01:52:45;99827.03;;;27.40;51.37
60099;BME280;45976;49.400;8.682;2022-08-05T01:53:50;99814.94;;;27.46;50.92
60099;BME280;45976;49.400;8.682;2022-08-05T01:55:00;99807.38;;;27.56;50.50
60099;BME280;45976;49.400;8.682;2022-08-05T01:56:03;99824.53;;;27.57;50.26
60099;BME280;45976;49.400;8.682;2022-08-05T01:57:08;99813.25;;;27.63;50.04
60099;BME280;45976;49.400;8.682;2022-08-05T01:58:10;99814.16;;;27.72;50.06
60099;BME280;45976;49.400;8.682;2022-08-05T01:59:16;99818.78;;;27.58;50.30
60099;BME280;45976;49.400;8.682;2022-08-05T02:00:19;99820.31;;;27.64;50.02
60099;BME280;45976;49.400;8.682;2022-08-05T02:01:20;99812.75;;;27.75;49.46
60099;BME280;45976;49.400;8.682;2022-08-05T02:02:24;99816.09;;;27.85;49.35
60099;BME280;45976;49.400;8.682;2022-08-05T02:03:37;99807.72;;;27.68;49.76
60099;BME280;45976;49.400;8.682;2022-08-05T02:04:44;99815.56;;;27.70;49.82
60099;BME280;45976;49.400;8.682;2022-08-05T02:05:47;99813.19;;;27.96;49.16
60099;BME280;45976;49.400;8.682;2022-08-05T02:06:51;99817.41;;;27.88;49.51
60099;BME280;45976;49.400;8.682;2022-08-05T02:07:52;99815.13;;;28.09;49.17
60099;BME280;45976;49.400;8.682;2022-08-05T02:08:53;99814.78;;;27.97;49.02
60099;BME280;45976;49.400;8.682;2022-08-05T02:09:54;99816.81;;;28.05;49.00
60099;BME280;45976;49.400;8.682;2022-08-05T02:11:04;99814.41;;;28.03;48.96
60099;BME280;45976;49.400;8.682;2022-08-05T02:12:11;99822.44;;;27.95;48.91
60099;BME280;45976;49.400;8.682;2022-08-05T02:13:26;99827.69;;;27.77;49.28
60099;BME280;45976;49.400;8.682;2022-08-05T02:15:44;99839.59;;;27.81;48.91
60099;BME280;45976;49.400;8.682;2022-08-05T02:16:53;99840.41;;;27.82;48.40
60099;BME280;45976;49.400;8.682;2022-08-05T02:18:04;99839.88;;;27.93;48.20
60099;BME280;45976;49.400;8.682;2022-08-05T02:19:37;99831.66;;;27.99;48.12
60099;BME280;45976;49.400;8.682;2022-08-05T02:20:53;99838.78;;;27.95;48.04
60099;BME280;45976;49.400;8.682;2022-08-05T02:23:20;99834.56;;;27.88;48.11
60099;BME280;45976;49.400;8.682;2022-08-05T02:24:26;99841.84;;;27.93;47.88
60099;BME280;45976;49.400;8.682;2022-08-05T02:25:39;99841.47;;;28.00;47.59
60099;BME280;45976;49.400;8.682;2022-08-05T02:26:59;99846.09;;;28.13;47.20
60099;BME280;45976;49.400;8.682;2022-08-05T02:28:03;99856.19;;;28.12;47.34
60099;BME280;45976;49.400;8.682;2022-08-05T02:29:08;99849.91;;;28.12;47.41
60099;BME280;45976;49.400;8.682;2022-08-05T02:30:12;99862.03;;;28.06;47.70
60099;BME280;45976;49.400;8.682;2022-08-05T02:31:20;99861.94;;;28.11;47.59
60099;BME280;45976;49.400;8.682;2022-08-05T02:32:27;99856.28;;;28.07;47.69
60099;BME280;45976;49.400;8.682;2022-08-05T02:33:35;99862.44;;;28.13;47.76
60099;BME280;45976;49.400;8.682;2022-08-05T02:34:40;99856.69;;;28.14;47.69
60099;BME280;45976;49.400;8.682;2022-08-05T02:35:44;99861.31;;;28.14;47.61
60099;BME280;45976;49.400;8.682;2022-08-05T02:36:52;99865.44;;;28.25;47.44
60099;BME280;45976;49.400;8.682;2022-08-05T02:37:57;99857.78;;;28.27;47.51
60099;BME280;45976;49.400;8.682;2022-08-05T02:39:00;99863.66;;;28.07;48.00
60099;BME280;45976;49.400;8.682;2022-08-05T02:40:06;99871.63;;;28.30;47.43
60099;BME280;45976;49.400;8.682;2022-08-05T02:41:09;99867.69;;;28.23;48.04
60099;BME280;45976;49.400;8.682;2022-08-05T02:42:10;99875.34;;;28.21;47.98
60099;BME280;45976;49.400;8.682;2022-08-05T02:43:12;99885.84;;;28.14;48.51
60099;BME280;45976;49.400;8.682;2022-08-05T02:44:16;99891.19;;;28.05;48.57
60099;BME280;45976;49.400;8.682;2022-08-05T02:45:23;99894.16;;;28.09;48.69
60099;BME280;45976;49.400;8.682;2022-08-05T02:46:27;99886.53;;;27.92;49.01
60099;BME280;45976;49.400;8.682;2022-08-05T02:47:30;99886.22;;;27.93;49.58
60099;BME280;45976;49.400;8.682;2022-08-05T02:48:35;99895.88;;;27.72;50.26
60099;BME280;45976;49.400;8.682;2022-08-05T02:49:39;99887.13;;;27.75;50.73
60099;BME280;45976;49.400;8.682;2022-08-05T02:50:45;99880.16;;;27.97;49.79
60099;BME280;45976;49.400;8.682;2022-08-05T02:51:49;99889.88;;;28.03;49.90
60099;BME280;45976;49.400;8.682;2022-08-05T02:52:52;99890.38;;;28.05;49.43
60099;BME280;45976;49.400;8.682;2022-08-05T02:53:53;99890.63;;;27.76;50.71
60099;BME280;45976;49.400;8.682;2022-08-05T02:54:54;99891.00;;;27.56;51.63
60099;BME280;45976;49.400;8.682;2022-08-05T02:55:56;99886.22;;;27.80;50.76
60099;BME280;45976;49.400;8.682;2022-08-05T02:56:58;99892.06;;;27.41;52.02
60099;BME280;45976;49.400;8.682;2022-08-05T02:58:00;99889.41;;;27.68;50.83
60099;BME280;45976;49.400;8.682;2022-08-05T02:59:03;99900.66;;;27.48;51.73
60099;BME280;45976;49.400;8.682;2022-08-05T03:00:07;99907.59;;;27.73;50.71
60099;BME280;45976;49.400;8.682;2022-08-05T03:01:12;99910.56;;;27.58;52.08
60099;BME280;45976;49.400;8.682;2022-08-05T03:02:19;99911.16;;;27.55;51.46
60099;BME280;45976;49.400;8.682;2022-08-05T03:03:27;99915.34;;;27.47;51.96
60099;BME280;45976;49.400;8.682;2022-08-05T03:04:30;99914.97;;;27.40;52.65
60099;BME280;45976;49.400;8.682;2022-08-05T03:05:32;99927.28;;;27.51;51.88
60099;BME280;45976;49.400;8.682;2022-08-05T03:06:34;99918.78;;;27.39;52.88
60099;BME280;45976;49.400;8.682;2022-08-05T03:07:35;99930.84;;;27.65;50.98
60099;BME280;45976;49.400;8.682;2022-08-05T03:08:38;99926.47;;;27.32;53.32
60099;BME280;45976;49.400;8.682;2022-08-05T03:09:41;99927.97;;;26.87;54.80
60099;BME280;45976;49.400;8.682;2022-08-05T03:10:43;99926.41;;;26.81;55.17
60099;BME280;45976;49.400;8.682;2022-08-05T03:11:44;99926.44;;;27.00;54.41
60099;BME280;45976;49.400;8.682;2022-08-05T03:12:45;99925.63;;;26.81;54.98
60099;BME280;45976;49.400;8.682;2022-08-05T03:13:47;99923.72;;;27.00;54.57
60099;BME280;45976;49.400;8.682;2022-08-05T03:14:47;99915.41;;;26.91;54.36
60099;BME280;45976;49.400;8.682;2022-08-05T03:15:48;99923.16;;;27.35;53.17
60099;BME280;45976;49.400;8.682;2022-08-05T03:16:49;99917.28;;;27.28;53.39
60099;BME280;45976;49.400;8.682;2022-08-05T03:17:51;99921.88;;;26.95;54.36
60099;BME280;45976;49.400;8.682;2022-08-05T03:18:53;99920.59;;;26.88;54.70
60099;BME280;45976;49.400;8.682;2022-08-05T03:19:54;99927.16;;;26.87;54.71
60099;BME280;45976;49.400;8.682;2022-08-05T03:20:55;99921.44;;;27.07;53.71
60099;BME280;45976;49.400;8.682;2022-08-05T03:21:55;99923.91;;;27.22;53.84
60099;BME280;45976;49.400;8.682;2022-08-05T03:22:57;99915.34;;;26.96;54.42
60099;BME280;45976;49.400;8.682;2022-08-05T03:23:58;99922.47;;;27.11;53.75
60099;BME280;45976;49.400;8.682;2022-08-05T03:25:00;99915.25;;;27.01;54.61
60099;BME280;45976;49.400;8.682;2022-08-05T03:26:01;99911.56;;;27.11;54.25
60099;BME280;45976;49.400;8.682;2022-08-05T03:27:02;99904.88;;;26.85;54.82
60099;BME280;45976;49.400;8.682;2022-08-05T03:28:05;99896.06;;;26.74;55.55
60099;BME280;45976;49.400;8.682;2022-08-05T03:29:07;99886.63;;;27.04;54.51
60099;BME280;45976;49.400;8.682;2022-08-05T03:30:08;99884.59;;;26.77;55.56
60099;BME280;45976;49.400;8.682;2022-08-05T03:31:09;99880.72;;;26.83;55.57
60099;BME280;45976;49.400;8.682;2022-08-05T03:32:11;99874.22;;;26.79;55.36
60099;BME280;45976;49.400;8.682;2022-08-05T03:33:13;99869.22;;;26.68;55.75
60099;BME280;45976;49.400;8.682;2022-08-05T03:34:14;99869.22;;;26.44;56.74
60099;BME280;45976;49.400;8.682;2022-08-05T03:35:15;99859.84;;;26.36;56.64
60099;BME280;45976;49.400;8.682;2022-08-05T03:36:16;99860.47;;;26.28;57.19
60099;BME280;45976;49.400;8.682;2022-08-05T03:37:18;99860.88;;;26.40;56.95
60099;BME280;45976;49.400;8.682;2022-08-05T03:38:20;99856.47;;;26.44;56.40
60099;BME280;45976;49.400;8.682;2022-08-05T03:39:21;99846.41;;;26.64;56.02
60099;BME280;45976;49.400;8.682;2022-08-05T03:40:22;99859.47;;;26.85;55.00
60099;BME280;45976;49.400;8.682;2022-08-05T03:41:23;99867.44;;;27.14;53.66
60099;BME280;45976;49.400;8.682;2022-08-05T03:42:24;99880.84;;;26.92;54.69
60099;BME280;45976;49.400;8.682;2022-08-05T03:43:25;99901.44;;;26.98;54.60
60099;BME280;45976;49.400;8.682;2022-08-05T03:44:26;99932.00;;;27.27;53.73
60099;BME280;45976;49.400;8.682;2022-08-05T03:45:26;99962.31;;;27.39;53.35
60099;BME280;45976;49.400;8.682;2022-08-05T03:46:27;99992.56;;;27.38;53.26
60099;BME280;45976;49.400;8.682;2022-08-05T03:47:28;100002.91;;;27.17;53.99
60099;BME280;45976;49.400;8.682;2022-08-05T03:48:30;100018.06;;;27.23;53.59
60099;BME280;45976;49.400;8.682;2022-08-05T03:49:31;100008.69;;;26.92;54.85
60099;BME280;45976;49.400;8.682;2022-08-05T03:50:57;100006.56;;;26.89;55.71
60099;BME280;45976;49.400;8.682;2022-08-05T03:52:11;100000.75;;;26.72;56.50
60099;BME280;45976;49.400;8.682;2022-08-05T03:53:30;99998.09;;;26.90;55.34
60099;BME280;45976;49.400;8.682;2022-08-05T03:54:42;99991.72;;;26.53;57.24
60099;BME280;45976;49.400;8.682;2022-08-05T03:55:56;99987.91;;;26.54;57.29
60099;BME280;45976;49.400;8.682;2022-08-05T03:57:03;99999.25;;;26.61;57.31
60099;BME280;45976;49.400;8.682;2022-08-05T03:58:11;100004.91;;;27.11;54.91
60099;BME280;45976;49.400;8.682;2022-08-05T03:59:23;100026.81;;;27.20;54.63
60099;BME280;45976;49.400;8.682;2022-08-05T04:00:28;100054.03;;;26.78;57.74
60099;BME280;45976;49.400;8.682;2022-08-05T04:01:35;100050.63;;;26.62;58.43
60099;BME280;45976;49.400;8.682;2022-08-05T04:02:40;100059.16;;;26.79;56.57
60099;BME280;45976;49.400;8.682;2022-08-05T04:03:48;100062.75;;;26.98;56.04
60099;BME280;45976;49.400;8.682;2022-08-05T04:04:51;100080.53;;;26.91;57.37
60099;BME280;45976;49.400;8.682;2022-08-05T04:05:53;100084.16;;;27.05;56.35
60099;BME280;45976;49.400;8.682;2022-08-05T04:06:56;100074.88;;;27.06;56.63
60099;BME280;45976;49.400;8.682;2022-08-05T04:08:05;100062.75;;;26.75;60.50
60099;BME280;45976;49.400;8.682;2022-08-05T04:09:08;100047.00;;;26.19;63.52
60099;BME280;45976;49.400;8.682;2022-08-05T04:10:10;100033.53;;;25.70;64.95
60099;BME280;45976;49.400;8.682;2022-08-05T04:11:12;100040.56;;;25.71;65.30
60099;BME280;45976;49.400;8.682;2022-08-05T04:12:12;100046.03;;;26.34;62.97
60099;BME280;45976;49.400;8.682;2022-08-05T04:13:13;100044.09;;;25.72;67.87
60099;BME280;45976;49.400;8.682;2022-08-05T04:14:17;100060.25;;;25.87;64.92
60099;BME280;45976;49.400;8.682;2022-08-05T04:15:19;100055.31;;;25.94;65.66
60099;BME280;45976;49.400;8.682;2022-08-05T04:16:19;100059.00;;;25.74;66.01
60099;BME280;45976;49.400;8.682;2022-08-05T04:17:20;100057.66;;;25.72;66.66
60099;BME280;45976;49.400;8.682;2022-08-05T04:18:22;100069.41;;;25.62;67.99
60099;BME280;45976;49.400;8.682;2022-08-05T04:19:27;100076.38;;;25.73;67.21
60099;BME280;45976;49.400;8.682;2022-08-05T04:20:28;100087.41;;;25.87;66.38
60099;BME280;45976;49.400;8.682;2022-08-05T04:21:29;100086.75;;;26.10;63.80
60099;BME280;45976;49.400;8.682;2022-08-05T04:22:30;100082.00;;;25.87;65.88
60099;BME280;45976;49.400;8.682;2022-08-05T04:23:32;100079.03;;;25.35;70.97
60099;BME280;45976;49.400;8.682;2022-08-05T04:24:36;100079.59;;;25.32;70.33
60099;BME280;45976;49.400;8.682;2022-08-05T04:25:40;100090.84;;;25.64;68.04
60099;BME280;45976;49.400;8.682;2022-08-05T04:26:40;100091.69;;;25.98;65.35
60099;BME280;45976;49.400;8.682;2022-08-05T04:27:41;100099.91;;;25.88;66.82
60099;BME280;45976;49.400;8.682;2022-08-05T04:28:41;100091.72;;;25.93;68.70
60099;BME280;45976;49.400;8.682;2022-08-05T04:29:42;100092.63;;;25.30;72.44
60099;BME280;45976;49.400;8.682;2022-08-05T04:30:43;100089.16;;;25.14;73.67
60099;BME280;45976;49.400;8.682;2022-08-05T04:31:44;100089.97;;;25.15;72.40
60099;BME280;45976;49.400;8.682;2022-08-05T04:32:45;100093.81;;;25.14;70.67
60099;BME280;45976;49.400;8.682;2022-08-05T04:33:46;100094.75;;;25.43;68.97
60099;BME280;45976;49.400;8.682;2022-08-05T04:34:47;100094.28;;;25.21;70.12
60099;BME280;45976;49.400;8.682;2022-08-05T04:35:47;100099.88;;;24.80;71.26
60099;BME280;45976;49.400;8.682;2022-08-05T04:36:48;100092.19;;;25.08;70.54
60099;BME280;45976;49.400;8.682;2022-08-05T04:37:49;100105.78;;;25.02;70.48
60099;BME280;45976;49.400;8.682;2022-08-05T04:38:50;100102.94;;;25.33;68.61
60099;BME280;45976;49.400;8.682;2022-08-05T04:39:51;100112.22;;;25.22;69.50
60099;BME280;45976;49.400;8.682;2022-08-05T04:40:52;100111.78;;;25.53;67.71
60099;BME280;45976;49.400;8.682;2022-08-05T04:41:52;100119.16;;;25.48;68.00
60099;BME280;45976;49.400;8.682;2022-08-05T04:42:53;100120.25;;;25.47;67.44
60099;BME280;45976;49.400;8.682;2022-08-05T04:43:53;100126.69;;;25.61;66.60
60099;BME280;45976;49.400;8.682;2022-08-05T04:44:54;100126.25;;;25.34;67.21
60099;BME280;45976;49.400;8.682;2022-08-05T04:45:55;100122.47;;;25.30;66.60
60099;BME280;45976;49.400;8.682;2022-08-05T04:46:56;100122.75;;;25.28;66.88
60099;BME280;45976;49.400;8.682;2022-08-05T04:48:09;100124.28;;;25.54;65.79
60099;BME280;45976;49.400;8.682;2022-08-05T04:49:11;100137.03;;;25.54;66.06
60099;BME280;45976;49.400;8.682;2022-08-05T04:50:11;100128.47;;;25.27;66.70
60099;BME280;45976;49.400;8.682;2022-08-05T04:51:12;100135.13;;;25.59;66.24
60099;BME280;45976;49.400;8.682;2022-08-05T04:52:13;100145.69;;;25.61;65.85
60099;BME280;45976;49.400;8.682;2022-08-05T04:53:16;100143.47;;;25.73;64.80
60099;BME280;45976;49.400;8.682;2022-08-05T04:54:17;100148.19;;;26.01;63.91
60099;BME280;45976;49.400;8.682;2022-08-05T04:55:18;100153.97;;;25.26;66.60
60099;BME280;45976;49.400;8.682;2022-08-05T04:56:19;100159.97;;;25.18;67.72
60099;BME280;45976;49.400;8.682;2022-08-05T04:57:20;100161.47;;;25.54;66.07
60099;BME280;45976;49.400;8.682;2022-08-05T04:58:20;100167.47;;;25.41;65.98
60099;BME280;45976;49.400;8.682;2022-08-05T04:59:21;100163.16;;;25.30;66.58
60099;BME280;45976;49.400;8.682;2022-08-05T05:00:22;100170.81;;;25.18;66.36
60099;BME280;45976;49.400;8.682;2022-08-05T05:01:22;100164.75;;;25.41;65.76
60099;BME280;45976;49.400;8.682;2022-08-05T05:02:23;100174.13;;;24.89;66.79
60099;BME280;45976;49.400;8.682;2022-08-05T05:03:25;100170.63;;;24.89;67.30
60099;BME280;45976;49.400;8.682;2022-08-05T05:04:25;100186.63;;;24.60;67.41
60099;BME280;45976;49.400;8.682;2022-08-05T05:05:26;100188.53;;;24.75;66.84
60099;BME280;45976;49.400;8.682;2022-08-05T05:06:27;100188.47;;;25.05;66.41
60099;BME280;45976;49.400;8.682;2022-08-05T05:07:28;100195.31;;;24.82;66.65
60099;BME280;45976;49.400;8.682;2022-08-05T05:08:29;100193.69;;;24.56;67.79
60099;BME280;45976;49.400;8.682;2022-08-05T05:09:29;100198.28;;;24.81;67.21
60099;BME280;45976;49.400;8.682;2022-08-05T05:10:40;100208.88;;;24.77;67.04
60099;BME280;45976;49.400;8.682;2022-08-05T05:11:42;100216.69;;;25.09;65.89
60099;BME280;45976;49.400;8.682;2022-08-05T05:12:43;100215.06;;;25.13;65.66
60099;BME280;45976;49.400;8.682;2022-08-05T05:13:44;100219.38;;;25.14;65.58
60099;BME280;45976;49.400;8.682;2022-08-05T05:14:44;100221.50;;;25.32;64.41
60099;BME280;45976;49.400;8.682;2022-08-05T05:15:45;100220.22;;;25.05;65.16
60099;BME280;45976;49.400;8.682;2022-08-05T05:16:46;100221.81;;;25.21;64.65
60099;BME280;45976;49.400;8.682;2022-08-05T05:17:46;100214.06;;;25.73;62.97
60099;BME280;45976;49.400;8.682;2022-08-05T05:18:47;100222.84;;;25.50;63.89
60099;BME280;45976;49.400;8.682;2022-08-05T05:19:47;100216.72;;;24.89;66.14
60099;BME280;45976;49.400;8.682;2022-08-05T05:20:48;100211.00;;;25.00;65.23
60099;BME280;45976;49.400;8.682;2022-08-05T05:21:49;100205.88;;;24.79;65.25
60099;BME280;45976;49.400;8.682;2022-08-05T05:22:49;100210.19;;;24.95;65.34
60099;BME280;45976;49.400;8.682;2022-08-05T05:23:50;100213.66;;;25.21;64.69
60099;BME280;45976;49.400;8.682;2022-08-05T05:24:50;100211.19;;;25.29;64.07
60099;BME280;45976;49.400;8.682;2022-08-05T05:25:51;100206.78;;;25.53;63.01
60099;BME280;45976;49.400;8.682;2022-08-05T05:26:52;100209.56;;;25.48;63.47
60099;BME280;45976;49.400;8.682;2022-08-05T05:27:52;100207.16;;;25.27;63.78
60099;BME280;45976;49.400;8.682;2022-08-05T05:28:53;100209.31;;;25.25;64.29
60099;BME280;45976;49.400;8.682;2022-08-05T05:29:53;100208.84;;;24.97;65.50
60099;BME280;45976;49.400;8.682;2022-08-05T05:30:54;100218.31;;;24.60;66.19
60099;BME280;45976;49.400;8.682;2022-08-05T05:31:55;100228.81;;;25.37;63.49
60099;BME280;45976;49.400;8.682;2022-08-05T05:32:56;100240.50;;;25.37;63.69
60099;BME280;45976;49.400;8.682;2022-08-05T05:33:58;100239.44;;;25.23;64.28
60099;BME280;45976;49.400;8.682;2022-08-05T05:34:59;100233.25;;;25.02;64.62
60099;BME280;45976;49.400;8.682;2022-08-05T05:35:59;100223.16;;;25.28;63.56
60099;BME280;45976;49.400;8.682;2022-08-05T05:37:00;100215.53;;;25.35;63.59
60099;BME280;45976;49.400;8.682;2022-08-05T05:38:02;100206.69;;;24.69;65.12
60099;BME280;45976;49.400;8.682;2022-08-05T05:39:04;100198.00;;;24.57;66.67
60099;BME280;45976;49.400;8.682;2022-08-05T05:40:05;100186.63;;;24.40;67.42
60099;BME280;45976;49.400;8.682;2022-08-05T05:41:07;100186.91;;;24.39;66.99
60099;BME280;45976;49.400;8.682;2022-08-05T05:42:07;100188.25;;;24.51;66.50
60099;BME280;45976;49.400;8.682;2022-08-05T05:43:08;100178.22;;;24.42;67.08
60099;BME280;45976;49.400;8.682;2022-08-05T05:44:09;100198.00;;;24.57;66.32